createdAt,value
2023-04-30T00:00:42.646Z,6.10
2023-04-30T00:03:14.445Z,4.00
2023-04-30T00:05:49.878Z,3.53
2023-04-30T00:08:21.632Z,4.47
2023-04-30T00:10:53.325Z,6.03
2023-04-30T00:13:25.318Z,3.77
2023-04-30T00:15:57.032Z,4.13
2023-04-30T00:18:28.813Z,4.93
2023-04-30T00:21:00.537Z,4.20
2023-04-30T00:23:32.298Z,4.63
2023-04-30T00:26:04.030Z,3.97
2023-04-30T00:28:35.768Z,3.33
2023-04-30T00:31:09.221Z,3.97
2023-04-30T00:33:41.031Z,4.60
2023-04-30T00:36:12.772Z,3.30
2023-04-30T00:38:44.461Z,4.10
2023-04-30T00:41:16.718Z,4.00
2023-04-30T00:43:48.424Z,3.77
2023-04-30T00:46:20.511Z,3.40
2023-04-30T00:48:52.553Z,3.83
2023-04-30T00:51:24.357Z,4.00
2023-04-30T00:53:56.606Z,7.20
2023-04-30T00:56:30.872Z,4.00
2023-04-30T00:59:02.708Z,3.23
2023-04-30T01:01:34.456Z,3.00
2023-04-30T01:04:06.271Z,3.07
2023-04-30T01:06:38.528Z,4.33
2023-04-30T01:09:10.529Z,3.27
2023-04-30T01:12:05.393Z,3.47
2023-04-30T01:14:53.700Z,3.53
2023-04-30T01:17:41.704Z,4.23
2023-04-30T01:20:14.905Z,4.60
2023-04-30T01:22:54.941Z,3.10
2023-04-30T01:25:42.972Z,3.47
2023-04-30T01:28:24.636Z,4.30
2023-04-30T01:30:56.729Z,4.13
2023-04-30T01:33:28.469Z,7.90
2023-04-30T01:36:24.341Z,3.07
2023-04-30T01:39:16.024Z,3.67
2023-04-30T01:42:17.588Z,3.70
2023-04-30T01:45:15.025Z,3.83
2023-04-30T01:47:52.402Z,4.23
2023-04-30T01:50:42.907Z,4.17
2023-04-30T01:53:23.658Z,3.57
2023-04-30T01:56:02.809Z,3.83
2023-04-30T01:58:37.702Z,4.10
2023-04-30T02:01:26.466Z,5.13
2023-04-30T02:03:59.170Z,2.83
2023-04-30T02:06:31.811Z,4.50
2023-04-30T02:09:06.149Z,3.83
2023-04-30T02:11:37.994Z,4.13
2023-04-30T02:14:09.799Z,3.73
2023-04-30T02:16:41.766Z,3.93
2023-04-30T02:19:13.824Z,5.80
2023-04-30T02:21:45.528Z,6.10
2023-04-30T02:24:17.290Z,4.87
2023-04-30T02:26:49.036Z,4.50
2023-04-30T02:29:20.832Z,3.80
2023-04-30T02:31:52.657Z,4.83
2023-04-30T02:34:24.557Z,6.33
2023-04-30T02:36:56.249Z,6.07
2023-04-30T02:39:28.053Z,5.17
2023-04-30T02:42:00.101Z,6.03
2023-04-30T02:44:31.934Z,5.03
2023-04-30T02:47:03.687Z,4.87
2023-04-30T02:49:36.451Z,5.10
2023-04-30T02:52:09.934Z,5.67
2023-04-30T02:54:42.887Z,5.10
2023-04-30T02:57:14.712Z,5.67
2023-04-30T02:59:46.684Z,4.73
2023-04-30T03:02:21.587Z,6.13
2023-04-30T03:04:53.987Z,4.80
2023-04-30T03:07:25.863Z,5.43
2023-04-30T03:09:57.579Z,8.87
2023-04-30T03:12:29.308Z,5.67
2023-04-30T03:15:01.044Z,6.43
2023-04-30T03:17:32.794Z,5.63
2023-04-30T03:20:05.030Z,6.63
2023-04-30T03:22:36.769Z,6.17
2023-04-30T03:25:09.163Z,5.93
2023-04-30T03:27:41.003Z,6.07
2023-04-30T03:30:12.729Z,6.03
2023-04-30T03:32:44.613Z,7.90
2023-04-30T03:35:16.661Z,5.67
2023-04-30T03:37:48.402Z,5.40
2023-04-30T03:40:20.319Z,7.93
2023-04-30T03:42:52.024Z,6.43
2023-04-30T03:45:23.776Z,6.23
2023-04-30T03:47:55.831Z,6.10
2023-04-30T03:50:27.625Z,7.17
2023-04-30T03:52:59.481Z,5.80
2023-04-30T03:55:31.508Z,5.50
2023-04-30T03:58:03.616Z,6.07
2023-04-30T04:00:35.553Z,5.93
2023-04-30T04:03:07.427Z,5.57
2023-04-30T04:05:39.188Z,6.27
2023-04-30T04:08:11.218Z,7.27
2023-04-30T04:10:43.158Z,6.23
2023-04-30T04:13:15.191Z,6.63
2023-04-30T04:15:46.961Z,7.70
2023-04-30T04:18:18.769Z,7.13
2023-04-30T04:20:50.815Z,5.80
2023-04-30T04:23:23.256Z,6.00
2023-04-30T04:25:55.133Z,10.60
2023-04-30T04:28:27.275Z,6.17
2023-04-30T04:30:59.606Z,9.30
2023-04-30T04:33:31.630Z,6.30
2023-04-30T04:36:03.776Z,8.33
2023-04-30T04:38:35.493Z,6.30
2023-04-30T04:41:08.323Z,7.63
2023-04-30T04:43:40.994Z,8.77
2023-04-30T04:46:14.368Z,6.60
2023-04-30T04:48:46.835Z,6.37
2023-04-30T04:51:19.099Z,6.77
2023-04-30T04:53:50.814Z,7.03
2023-04-30T04:56:23.568Z,7.37
2023-04-30T04:58:55.341Z,7.20
2023-04-30T05:01:27.497Z,6.37
2023-04-30T05:03:59.759Z,6.37
2023-04-30T05:06:32.179Z,7.23
2023-04-30T05:09:08.843Z,7.07
2023-04-30T05:11:41.610Z,7.90
2023-04-30T05:14:13.452Z,7.10
2023-04-30T05:16:45.685Z,6.23
2023-04-30T05:19:17.443Z,6.80
2023-04-30T05:21:49.153Z,6.50
2023-04-30T05:24:20.907Z,6.30
2023-04-30T05:26:52.608Z,6.23
2023-04-30T05:29:24.400Z,7.27
2023-04-30T05:31:56.246Z,9.03
2023-04-30T05:34:28.087Z,6.73
2023-04-30T05:36:59.765Z,6.97
2023-04-30T05:39:31.527Z,6.70
2023-04-30T05:42:03.423Z,5.73
2023-04-30T05:44:35.129Z,6.93
2023-04-30T05:47:07.015Z,5.73
2023-04-30T05:49:38.714Z,5.60
2023-04-30T05:52:11.090Z,7.77
2023-04-30T05:54:42.963Z,5.80
2023-04-30T05:57:14.747Z,8.33
2023-04-30T05:59:46.468Z,5.93
2023-04-30T06:02:18.183Z,8.43
2023-04-30T06:04:50.091Z,6.27
2023-04-30T06:07:21.830Z,5.80
2023-04-30T06:09:53.721Z,6.33
2023-04-30T06:12:26.020Z,5.67
2023-04-30T06:14:58.177Z,7.13
2023-04-30T06:17:29.989Z,5.90
2023-04-30T06:20:06.600Z,5.00
2023-04-30T06:22:38.315Z,5.53
2023-04-30T06:25:10.285Z,5.27
2023-04-30T06:27:42.064Z,6.10
2023-04-30T06:30:13.862Z,5.30
2023-04-30T06:32:46.029Z,5.03
2023-04-30T06:35:17.782Z,7.40
2023-04-30T06:37:49.467Z,5.37
2023-04-30T06:40:21.173Z,5.47
2023-04-30T06:42:54.421Z,6.20
2023-04-30T06:45:26.159Z,6.87
2023-04-30T06:47:59.462Z,7.10
2023-04-30T06:50:31.418Z,5.43
2023-04-30T06:53:03.150Z,6.97
2023-04-30T06:55:34.884Z,6.17
2023-04-30T06:58:06.744Z,6.07
2023-04-30T07:00:38.599Z,6.13
2023-04-30T07:03:10.394Z,5.83
2023-04-30T07:05:42.230Z,6.57
2023-04-30T07:08:15.103Z,5.83
2023-04-30T07:10:46.843Z,5.93
2023-04-30T07:13:18.553Z,9.20
2023-04-30T07:15:50.432Z,6.00
2023-04-30T07:18:22.142Z,6.07
2023-04-30T07:20:53.922Z,5.90
2023-04-30T07:23:26.473Z,5.63
2023-04-30T07:25:59.422Z,5.73
2023-04-30T07:28:31.101Z,6.50
2023-04-30T07:31:02.892Z,6.67
2023-04-30T07:33:34.611Z,4.87
2023-04-30T07:36:06.519Z,4.93
2023-04-30T07:38:38.236Z,5.43
2023-04-30T07:41:10.882Z,6.20
2023-04-30T07:43:42.578Z,8.43
2023-04-30T07:46:14.360Z,7.73
2023-04-30T07:48:46.447Z,5.57
2023-04-30T07:51:18.172Z,5.37
2023-04-30T07:53:49.850Z,7.17
2023-04-30T07:56:21.656Z,6.97
2023-04-30T07:58:53.369Z,5.23
2023-04-30T08:01:25.293Z,4.20
2023-04-30T08:03:57.135Z,5.60
2023-04-30T08:06:29.059Z,4.40
2023-04-30T08:09:00.935Z,5.43
2023-04-30T08:11:32.714Z,4.33
2023-04-30T08:14:04.820Z,3.60
2023-04-30T08:16:36.878Z,5.07
2023-04-30T08:19:08.584Z,4.67
2023-04-30T08:21:40.437Z,4.43
2023-04-30T08:24:12.112Z,4.70
2023-04-30T08:26:44.164Z,6.00
2023-04-30T08:29:15.859Z,4.37
2023-04-30T08:31:47.683Z,3.77
2023-04-30T08:34:19.399Z,4.67
2023-04-30T08:36:51.152Z,6.90
2023-04-30T08:39:22.924Z,4.60
2023-04-30T08:41:56.302Z,3.27
2023-04-30T08:44:28.358Z,5.83
2023-04-30T08:47:01.500Z,3.67
2023-04-30T08:49:33.648Z,2.90
2023-04-30T08:52:05.614Z,3.00
2023-04-30T08:54:37.778Z,2.83
2023-04-30T08:57:10.001Z,3.80
2023-04-30T08:59:44.737Z,3.03
2023-04-30T09:02:16.539Z,2.23
2023-04-30T09:04:50.502Z,3.03
2023-04-30T09:07:25.355Z,1.83
2023-04-30T09:09:58.489Z,2.10
2023-04-30T09:12:30.195Z,4.60
2023-04-30T09:15:03.662Z,4.17
2023-04-30T09:17:35.978Z,1.93
2023-04-30T09:20:12.943Z,2.30
2023-04-30T09:22:44.721Z,3.20
2023-04-30T09:25:16.680Z,1.80
2023-04-30T09:27:48.436Z,2.30
2023-04-30T09:30:32.850Z,2.83
2023-04-30T09:33:04.743Z,3.37
2023-04-30T09:35:42.112Z,1.43
2023-04-30T09:38:31.944Z,1.23
2023-04-30T09:41:03.954Z,1.47
2023-04-30T09:43:45.072Z,1.27
2023-04-30T09:46:19.710Z,2.07
2023-04-30T09:49:02.629Z,1.40
2023-04-30T09:51:35.666Z,1.33
2023-04-30T09:54:10.306Z,3.60
2023-04-30T09:56:42.058Z,1.60
2023-04-30T09:59:16.141Z,1.10
2023-04-30T10:01:48.553Z,5.67
2023-04-30T10:04:21.720Z,1.93
2023-04-30T10:06:56.821Z,1.73
2023-04-30T10:09:39.112Z,1.97
2023-04-30T10:12:16.195Z,2.40
2023-04-30T10:14:55.340Z,2.57
2023-04-30T10:17:29.756Z,4.30
2023-04-30T10:20:05.918Z,2.03
2023-04-30T10:22:37.900Z,3.20
2023-04-30T10:25:13.547Z,4.13
2023-04-30T10:27:46.631Z,2.03
2023-04-30T10:30:18.615Z,5.97
2023-04-30T10:33:05.890Z,3.33
2023-04-30T10:35:47.205Z,4.80
2023-04-30T10:38:23.118Z,2.90
2023-04-30T10:41:02.224Z,3.77
2023-04-30T10:43:36.469Z,2.53
2023-04-30T10:46:08.898Z,1.83
2023-04-30T10:48:40.654Z,1.57
2023-04-30T10:51:12.387Z,3.30
2023-04-30T10:53:44.523Z,1.43
2023-04-30T10:56:31.204Z,2.50
2023-04-30T10:59:03.148Z,2.10
2023-04-30T11:01:58.918Z,2.37
2023-04-30T11:04:30.853Z,2.23
2023-04-30T11:07:09.525Z,2.03
2023-04-30T11:09:43.976Z,2.23
2023-04-30T11:12:21.831Z,2.10
2023-04-30T11:14:54.015Z,2.43
2023-04-30T11:17:27.662Z,2.57
2023-04-30T11:20:01.724Z,2.50
2023-04-30T11:22:36.304Z,2.30
2023-04-30T11:25:19.680Z,4.30
2023-04-30T11:27:52.612Z,1.67
2023-04-30T11:30:25.099Z,1.73
2023-04-30T11:33:00.636Z,2.20
2023-04-30T11:35:32.623Z,2.07
2023-04-30T11:38:07.018Z,1.90
2023-04-30T11:40:39.090Z,2.17
2023-04-30T11:43:33.437Z,1.70
2023-04-30T11:46:14.221Z,2.90
2023-04-30T11:48:46.923Z,1.90
2023-04-30T11:51:24.915Z,2.80
2023-04-30T11:53:57.236Z,2.07
2023-04-30T11:56:28.933Z,1.70
2023-04-30T11:59:00.617Z,2.03
2023-04-30T12:01:32.637Z,1.80
2023-04-30T12:04:04.890Z,1.77
2023-04-30T12:06:36.874Z,2.13
2023-04-30T12:09:09.572Z,1.80
2023-04-30T12:11:41.885Z,2.00
2023-04-30T12:14:14.662Z,1.80
2023-04-30T12:16:51.584Z,2.63
2023-04-30T12:19:26.924Z,1.80
2023-04-30T12:21:59.044Z,1.60
2023-04-30T12:24:30.894Z,1.60
2023-04-30T12:27:03.226Z,1.73
2023-04-30T12:29:34.987Z,1.87
2023-04-30T12:32:06.757Z,2.50
2023-04-30T12:34:38.612Z,1.83
2023-04-30T12:37:10.588Z,1.67
2023-04-30T12:39:42.352Z,1.73
2023-04-30T12:42:19.962Z,2.00
2023-04-30T12:44:51.660Z,2.00
2023-04-30T12:47:25.201Z,1.30
2023-04-30T12:49:57.087Z,3.33
2023-04-30T12:52:28.974Z,2.57
2023-04-30T12:55:21.600Z,1.90
2023-04-30T12:58:06.294Z,1.90
2023-04-30T13:00:45.803Z,2.33
2023-04-30T13:03:21.808Z,1.67
2023-04-30T13:05:54.722Z,1.20
2023-04-30T13:08:26.566Z,1.53
2023-04-30T13:10:58.513Z,1.50
2023-04-30T13:13:30.386Z,1.47
2023-04-30T13:16:02.356Z,1.53
2023-04-30T13:18:34.250Z,2.00
2023-04-30T13:21:06.279Z,1.50
2023-04-30T13:23:48.662Z,5.20
2023-04-30T13:26:24.477Z,1.33
2023-04-30T13:28:56.260Z,1.50
2023-04-30T13:31:27.980Z,1.17
2023-04-30T13:33:59.670Z,1.20
2023-04-30T13:36:31.417Z,1.43
2023-04-30T13:39:04.300Z,1.30
2023-04-30T13:41:36.073Z,1.47
2023-04-30T13:44:07.829Z,1.20
2023-04-30T13:46:39.632Z,1.47
2023-04-30T13:49:11.339Z,1.53
2023-04-30T13:51:43.066Z,1.40
2023-04-30T13:54:14.788Z,1.57
2023-04-30T13:56:46.499Z,1.47
2023-04-30T13:59:18.495Z,2.37
2023-04-30T14:01:50.257Z,2.97
2023-04-30T14:04:21.997Z,2.13
2023-04-30T14:06:56.564Z,2.97
2023-04-30T14:09:29.063Z,1.40
2023-04-30T14:12:00.806Z,2.10
2023-04-30T14:14:32.606Z,1.03
2023-04-30T14:17:05.043Z,1.47
2023-04-30T14:19:36.812Z,3.37
2023-04-30T14:22:08.500Z,2.10
2023-04-30T14:24:40.415Z,1.50
2023-04-30T14:27:12.096Z,1.77
2023-04-30T14:29:43.908Z,1.57
2023-04-30T14:32:15.991Z,1.20
2023-04-30T14:34:47.820Z,2.13
2023-04-30T14:37:19.987Z,1.53
2023-04-30T14:39:51.931Z,1.10
2023-04-30T14:42:23.697Z,2.10
2023-04-30T14:44:55.406Z,1.50
2023-04-30T14:47:28.289Z,1.53
2023-04-30T14:50:02.169Z,1.33
2023-04-30T14:52:34.405Z,1.93
2023-04-30T14:55:06.588Z,1.33
2023-04-30T14:57:38.371Z,1.60
2023-04-30T15:00:11.078Z,1.00
2023-04-30T15:02:42.924Z,3.87
2023-04-30T15:05:14.744Z,1.43
2023-04-30T15:07:46.632Z,4.30
2023-04-30T15:10:18.531Z,1.43
2023-04-30T15:12:50.303Z,1.83
2023-04-30T15:15:27.719Z,1.33
2023-04-30T15:18:01.412Z,1.60
2023-04-30T15:20:33.277Z,1.47
2023-04-30T15:23:05.388Z,1.40
2023-04-30T15:25:37.802Z,1.30
2023-04-30T15:28:09.762Z,1.13
2023-04-30T15:30:41.831Z,1.27
2023-04-30T15:33:13.637Z,1.50
2023-04-30T15:35:47.275Z,1.30
2023-04-30T15:38:19.251Z,1.77
2023-04-30T15:40:50.990Z,1.50
2023-04-30T15:43:23.155Z,3.30
2023-04-30T15:45:54.878Z,1.90
2023-04-30T15:48:26.689Z,2.97
2023-04-30T15:50:59.146Z,1.27
2023-04-30T15:53:30.854Z,1.60
2023-04-30T15:56:04.457Z,1.63
2023-04-30T15:58:36.345Z,1.20
2023-04-30T16:01:08.712Z,2.67
2023-04-30T16:03:40.556Z,3.37
2023-04-30T16:06:12.365Z,1.13
2023-04-30T16:08:45.960Z,1.50
2023-04-30T16:11:17.773Z,1.73
2023-04-30T16:13:53.500Z,1.33
2023-04-30T16:16:27.326Z,1.50
2023-04-30T16:18:59.725Z,1.10
2023-04-30T16:21:34.628Z,1.60
2023-04-30T16:24:09.218Z,1.20
2023-04-30T16:26:40.958Z,1.77
2023-04-30T16:29:12.798Z,1.27
2023-04-30T16:31:44.672Z,1.43
2023-04-30T16:34:16.414Z,1.10
2023-04-30T16:36:48.180Z,1.00
2023-04-30T16:39:19.874Z,0.93
2023-04-30T16:41:51.567Z,1.43
2023-04-30T16:44:23.249Z,2.00
2023-04-30T16:46:56.978Z,1.47
2023-04-30T16:49:28.685Z,3.23
2023-04-30T16:52:02.306Z,1.10
2023-04-30T16:54:34.015Z,1.37
2023-04-30T16:57:05.775Z,1.60
2023-04-30T16:59:37.558Z,1.60
2023-04-30T17:02:09.893Z,2.73
2023-04-30T17:04:42.050Z,3.40
2023-04-30T17:07:13.842Z,1.00
2023-04-30T17:09:45.626Z,1.20
2023-04-30T17:12:17.328Z,2.00
2023-04-30T17:14:49.035Z,1.67
2023-04-30T17:17:20.768Z,2.70
2023-04-30T17:19:52.521Z,1.23
2023-04-30T17:22:24.866Z,1.00
2023-04-30T17:24:57.692Z,1.20
2023-04-30T17:27:31.203Z,2.30
2023-04-30T17:30:04.417Z,1.00
2023-04-30T17:32:36.434Z,2.80
2023-04-30T17:35:14.555Z,1.40
2023-04-30T17:38:01.579Z,2.43
2023-04-30T17:41:00.127Z,3.33
2023-04-30T17:43:55.780Z,3.60
2023-04-30T17:46:35.522Z,2.20
2023-04-30T17:49:39.957Z,2.10
2023-04-30T17:52:18.346Z,2.30
2023-04-30T17:55:07.385Z,1.17
2023-04-30T17:58:10.149Z,1.03
2023-04-30T18:01:01.136Z,0.90
2023-04-30T18:06:55.522Z,0.83
2023-04-30T18:09:53.807Z,1.00
2023-04-30T18:12:33.069Z,1.63
2023-04-30T18:16:12.840Z,3.70
2023-04-30T18:19:26.284Z,1.27
2023-04-30T18:22:00.506Z,1.10
2023-04-30T18:24:32.303Z,0.97
2023-04-30T18:27:05.119Z,1.00
2023-04-30T18:29:37.373Z,2.00
2023-04-30T18:32:09.205Z,1.10
2023-04-30T18:34:41.354Z,0.90
2023-04-30T18:37:13.511Z,0.87
2023-04-30T18:39:45.194Z,1.10
2023-04-30T18:42:17.265Z,0.90
2023-04-30T18:44:48.966Z,1.83
2023-04-30T18:47:20.658Z,1.20
2023-04-30T18:49:52.535Z,1.20
2023-04-30T18:52:24.380Z,1.00
2023-04-30T18:54:56.262Z,1.00
2023-04-30T18:57:28.396Z,1.67
2023-04-30T19:00:00.157Z,1.30
2023-04-30T19:02:31.967Z,1.33
2023-04-30T19:05:04.002Z,1.80
2023-04-30T19:07:35.710Z,1.63
2023-04-30T19:10:07.677Z,1.23
2023-04-30T19:12:39.456Z,1.43
2023-04-30T19:15:14.796Z,2.87
2023-04-30T19:17:46.577Z,1.40
2023-04-30T19:20:18.487Z,1.77
2023-04-30T19:22:50.537Z,1.17
2023-04-30T19:25:23.392Z,1.43
2023-04-30T19:27:55.144Z,3.50
2023-04-30T19:30:26.874Z,1.40
2023-04-30T19:32:58.580Z,4.67
2023-04-30T19:35:30.271Z,3.43
2023-04-30T19:38:02.463Z,1.47
2023-04-30T19:40:34.483Z,7.40
2023-04-30T19:43:06.234Z,1.17
2023-04-30T19:45:52.939Z,1.53
2023-04-30T19:48:25.653Z,1.60
2023-04-30T19:50:58.073Z,2.20
2023-04-30T19:53:30.289Z,2.03
2023-04-30T19:56:01.991Z,5.33
2023-04-30T19:58:33.719Z,1.57
2023-04-30T20:01:05.412Z,1.50
2023-04-30T20:03:37.389Z,3.47
2023-04-30T20:06:09.999Z,1.90
2023-04-30T20:08:41.901Z,2.97
2023-04-30T20:11:13.606Z,2.13
2023-04-30T20:13:45.311Z,3.90
2023-04-30T20:16:19.163Z,1.77
2023-04-30T20:18:50.955Z,2.30
2023-04-30T20:21:24.860Z,2.63
2023-04-30T20:23:56.884Z,5.73
2023-04-30T20:26:28.600Z,2.10
2023-04-30T20:29:00.992Z,1.80
2023-04-30T20:31:32.980Z,2.80
2023-04-30T20:34:04.942Z,1.70
2023-04-30T20:36:36.671Z,2.60
2023-04-30T20:39:08.744Z,1.93
2023-04-30T20:41:40.426Z,2.17
2023-04-30T20:44:12.169Z,2.33
2023-04-30T20:46:44.006Z,4.37
2023-04-30T20:49:16.007Z,2.00
2023-04-30T20:51:47.691Z,2.20
2023-04-30T20:54:19.392Z,2.27
2023-04-30T20:56:51.610Z,3.87
2023-04-30T20:59:23.402Z,2.13
2023-04-30T21:01:55.254Z,2.60
2023-04-30T21:04:27.460Z,2.67
2023-04-30T21:06:59.213Z,2.30
2023-04-30T21:09:32.713Z,4.03
2023-04-30T21:12:05.339Z,2.50
2023-04-30T21:14:37.525Z,2.40
2023-04-30T21:17:09.576Z,2.27
2023-04-30T21:19:41.300Z,3.80
2023-04-30T21:22:13.093Z,4.00
2023-04-30T21:24:44.842Z,4.17
2023-04-30T21:27:16.572Z,2.37
2023-04-30T21:29:48.468Z,2.40
2023-04-30T21:32:20.298Z,3.13
2023-04-30T21:34:52.027Z,2.40
2023-04-30T21:37:23.743Z,2.10
2023-04-30T21:39:56.527Z,4.33
2023-04-30T21:42:29.004Z,2.70
2023-04-30T21:45:00.745Z,2.43
2023-04-30T21:47:32.464Z,2.37
2023-04-30T21:50:05.731Z,3.23
2023-04-30T21:52:37.501Z,3.03
2023-04-30T21:55:09.639Z,2.50
2023-04-30T21:57:41.359Z,4.57
2023-04-30T22:00:14.463Z,4.57
2023-04-30T22:02:52.288Z,3.37
2023-04-30T22:05:24.029Z,4.53
2023-04-30T22:07:55.721Z,3.40
2023-04-30T22:10:27.424Z,4.47
2023-04-30T22:12:59.121Z,3.27
2023-04-30T22:15:41.184Z,2.87
2023-04-30T22:18:20.568Z,2.93
2023-04-30T22:20:52.597Z,3.27
2023-04-30T22:23:24.277Z,2.60
2023-04-30T22:25:56.039Z,2.63
2023-04-30T22:28:27.740Z,2.60
2023-04-30T22:30:59.781Z,2.20
2023-04-30T22:33:36.545Z,2.30
2023-04-30T22:36:08.940Z,4.33
2023-04-30T22:38:40.838Z,2.20
2023-04-30T22:41:12.601Z,2.30
2023-04-30T22:43:47.251Z,2.03
2023-04-30T22:46:19.091Z,2.73
2023-04-30T22:48:50.937Z,4.00
2023-04-30T22:51:22.686Z,2.63
2023-04-30T22:53:56.313Z,3.40
2023-04-30T22:56:28.099Z,2.90
2023-04-30T22:59:00.248Z,2.73
2023-04-30T23:01:32.377Z,3.63
2023-04-30T23:04:07.232Z,2.87
2023-04-30T23:06:39.540Z,2.97
2023-04-30T23:09:12.617Z,2.97
2023-04-30T23:11:44.940Z,2.57
2023-04-30T23:14:17.308Z,2.80
2023-04-30T23:16:49.088Z,2.70
2023-04-30T23:19:20.820Z,2.73
2023-04-30T23:21:52.825Z,2.20
2023-04-30T23:24:24.517Z,2.97
2023-04-30T23:26:57.739Z,3.27
2023-04-30T23:29:29.727Z,5.67
2023-04-30T23:32:01.549Z,7.10
2023-04-30T23:34:33.280Z,3.30
2023-04-30T23:37:05.009Z,2.50
2023-04-30T23:39:37.229Z,3.13
2023-04-30T23:42:08.952Z,3.20
2023-04-30T23:44:40.719Z,2.50
2023-04-30T23:47:12.468Z,2.90
2023-04-30T23:49:46.038Z,2.80
2023-04-30T23:52:17.974Z,3.20
2023-04-30T23:54:49.896Z,2.40
2023-04-30T23:57:21.565Z,2.53
2023-04-30T23:59:53.450Z,2.53
